createdAt,value
2024-02-08T00:00:35.914Z,3.20
2024-02-08T00:01:35.963Z,2.20
2024-02-08T00:02:36.740Z,2.30
2024-02-08T00:03:35.970Z,2.30
2024-02-08T00:04:36.834Z,2.60
2024-02-08T00:05:35.908Z,3.10
2024-02-08T00:06:35.943Z,3.80
2024-02-08T00:07:35.994Z,3.10
2024-02-08T00:08:36.280Z,3.60
2024-02-08T00:09:35.881Z,2.60
2024-02-08T00:10:35.886Z,1.80
2024-02-08T00:11:35.784Z,1.80
2024-02-08T00:12:35.778Z,2.40
2024-02-08T00:13:36.381Z,1.70
2024-02-08T00:14:36.316Z,2.30
2024-02-08T00:15:35.745Z,2.10
2024-02-08T00:16:35.782Z,2.50
2024-02-08T00:17:35.815Z,3.10
2024-02-08T00:18:35.806Z,1.60
2024-02-08T00:19:35.735Z,3.70
2024-02-08T00:20:35.699Z,1.70
2024-02-08T00:21:35.670Z,3.30
2024-02-08T00:22:35.792Z,1.90
2024-02-08T00:23:36.475Z,1.30
2024-02-08T00:24:36.380Z,2.30
2024-02-08T00:25:35.687Z,1.90
2024-02-08T00:26:35.714Z,3.00
2024-02-08T00:27:35.645Z,2.50
2024-02-08T00:28:35.659Z,2.50
2024-02-08T00:29:35.814Z,2.00
2024-02-08T00:30:35.571Z,3.60
2024-02-08T00:31:35.597Z,3.60
2024-02-08T00:32:35.619Z,2.50
2024-02-08T00:33:35.558Z,1.80
2024-02-08T00:34:35.616Z,2.00
2024-02-08T00:35:35.537Z,2.60
2024-02-08T00:36:35.573Z,2.80
2024-02-08T00:37:36.469Z,2.80
2024-02-08T00:38:35.559Z,4.20
2024-02-08T00:39:35.484Z,2.90
2024-02-08T00:40:35.525Z,3.40
2024-02-08T00:41:35.456Z,2.20
2024-02-08T00:42:35.532Z,2.80
2024-02-08T00:43:36.389Z,2.50
2024-02-08T00:44:35.451Z,3.80
2024-02-08T00:45:35.708Z,3.90
2024-02-08T00:46:35.417Z,3.40
2024-02-08T00:47:35.504Z,2.40
2024-02-08T00:48:35.436Z,2.20
2024-02-08T00:49:35.408Z,3.20
2024-02-08T00:50:35.388Z,3.60
2024-02-08T00:51:35.352Z,2.80
2024-02-08T00:52:35.403Z,3.20
2024-02-08T00:53:35.344Z,4.40
2024-02-08T00:54:35.380Z,3.20
2024-02-08T00:55:35.367Z,4.30
2024-02-08T00:56:35.292Z,2.80
2024-02-08T00:57:35.274Z,3.90
2024-02-08T00:58:35.359Z,3.10
2024-02-08T00:59:36.088Z,3.20
2024-02-08T01:00:35.298Z,5.00
2024-02-08T01:01:35.262Z,3.10
2024-02-08T01:02:35.235Z,2.20
2024-02-08T01:03:35.284Z,4.10
2024-02-08T01:04:35.270Z,4.50
2024-02-08T01:05:35.287Z,4.60
2024-02-08T01:06:35.361Z,4.50
2024-02-08T01:07:35.178Z,2.90
2024-02-08T01:08:35.184Z,4.20
2024-02-08T01:09:35.152Z,3.80
2024-02-08T01:10:35.169Z,3.50
2024-02-08T01:11:35.146Z,3.90
2024-02-08T01:12:35.945Z,5.80
2024-02-08T01:13:35.144Z,2.50
2024-02-08T01:14:35.111Z,5.50
2024-02-08T01:15:35.086Z,4.50
2024-02-08T01:16:35.096Z,2.90
2024-02-08T01:17:35.106Z,3.80
2024-02-08T01:18:35.080Z,2.80
2024-02-08T01:19:35.046Z,2.70
2024-02-08T01:20:35.059Z,4.40
2024-02-08T01:21:35.005Z,4.10
2024-02-08T01:22:35.074Z,2.90
2024-02-08T01:23:35.033Z,5.50
2024-02-08T01:24:34.977Z,4.30
2024-02-08T01:25:35.699Z,4.50
2024-02-08T01:26:35.060Z,3.70
2024-02-08T01:27:35.711Z,4.40
2024-02-08T01:28:34.983Z,4.60
2024-02-08T01:29:35.019Z,3.50
2024-02-08T01:30:34.905Z,4.50
2024-02-08T01:31:35.639Z,3.70
2024-02-08T01:32:35.852Z,7.30
2024-02-08T01:33:34.934Z,4.00
2024-02-08T01:34:35.045Z,5.10
2024-02-08T01:35:34.941Z,3.40
2024-02-08T01:36:34.846Z,4.20
2024-02-08T01:37:35.149Z,3.90
2024-02-08T01:38:34.839Z,2.90
2024-02-08T01:39:34.837Z,4.00
2024-02-08T01:40:35.281Z,5.10
2024-02-08T01:41:34.806Z,6.20
2024-02-08T01:42:34.792Z,3.50
2024-02-08T01:43:34.996Z,6.60
2024-02-08T01:44:35.623Z,4.30
2024-02-08T01:45:35.605Z,3.60
2024-02-08T01:46:35.710Z,4.30
2024-02-08T01:47:34.773Z,4.20
2024-02-08T01:48:34.815Z,3.80
2024-02-08T01:49:34.793Z,4.70
2024-02-08T01:50:34.711Z,3.60
2024-02-08T01:51:34.688Z,4.30
2024-02-08T01:52:34.756Z,6.30
2024-02-08T01:53:34.791Z,4.20
2024-02-08T01:54:34.650Z,3.90
2024-02-08T01:55:35.181Z,7.70
2024-02-08T01:56:34.636Z,4.50
2024-02-08T01:57:34.611Z,4.90
2024-02-08T01:58:34.697Z,3.30
2024-02-08T01:59:34.584Z,4.40
2024-02-08T02:00:35.499Z,4.20
2024-02-08T02:01:34.593Z,7.80
2024-02-08T02:02:35.429Z,4.60
2024-02-08T02:03:34.676Z,5.50
2024-02-08T02:04:34.555Z,5.60
2024-02-08T02:05:34.620Z,4.80
2024-02-08T02:06:34.676Z,3.80
2024-02-08T02:07:34.531Z,6.30
2024-02-08T02:08:34.878Z,6.10
2024-02-08T02:09:34.528Z,3.90
2024-02-08T02:10:34.519Z,5.30
2024-02-08T02:11:34.509Z,5.20
2024-02-08T02:12:34.453Z,4.80
2024-02-08T02:13:34.569Z,4.10
2024-02-08T02:14:34.470Z,5.60
2024-02-08T02:15:34.409Z,7.00
2024-02-08T02:16:34.440Z,5.50
2024-02-08T02:17:34.476Z,4.80
2024-02-08T02:18:34.440Z,6.70
2024-02-08T02:19:34.404Z,7.50
2024-02-08T02:20:34.362Z,5.50
2024-02-08T02:21:34.368Z,7.60
2024-02-08T02:22:34.362Z,6.10
2024-02-08T02:23:34.388Z,5.70
2024-02-08T02:24:34.368Z,4.80
2024-02-08T02:25:34.375Z,6.20
2024-02-08T02:26:35.161Z,6.40
2024-02-08T02:27:35.099Z,5.20
2024-02-08T02:28:34.315Z,8.10
2024-02-08T02:29:34.270Z,5.60
2024-02-08T02:30:34.307Z,6.10
2024-02-08T02:31:34.345Z,5.00
2024-02-08T02:32:34.264Z,8.00
2024-02-08T02:33:34.410Z,4.50
2024-02-08T02:34:34.282Z,5.40
2024-02-08T02:35:34.405Z,5.50
2024-02-08T02:36:34.255Z,8.50
2024-02-08T02:37:34.224Z,4.80
2024-02-08T02:38:34.185Z,4.10
2024-02-08T02:39:34.233Z,6.50
2024-02-08T02:40:34.194Z,3.90
2024-02-08T02:41:34.163Z,6.50
2024-02-08T02:42:34.176Z,5.00
2024-02-08T02:43:34.281Z,6.20
2024-02-08T02:44:34.120Z,6.00
2024-02-08T02:45:34.127Z,5.70
2024-02-08T02:46:34.838Z,6.10
2024-02-08T02:47:34.193Z,7.10
2024-02-08T02:48:34.159Z,6.70
2024-02-08T02:49:34.090Z,5.50
2024-02-08T02:50:34.035Z,5.90
2024-02-08T02:51:34.034Z,5.10
2024-02-08T02:52:34.078Z,5.60
2024-02-08T02:53:34.082Z,7.40
2024-02-08T02:54:34.737Z,6.40
2024-02-08T02:55:34.079Z,6.40
2024-02-08T02:56:33.999Z,4.40
2024-02-08T02:57:33.993Z,5.80
2024-02-08T02:58:34.032Z,5.50
2024-02-08T02:59:33.954Z,8.40
2024-02-08T03:00:33.940Z,5.60
2024-02-08T03:01:33.993Z,9.40
2024-02-08T03:02:33.938Z,7.20
2024-02-08T03:03:33.992Z,6.00
2024-02-08T03:04:33.916Z,5.90
2024-02-08T03:05:34.218Z,6.10
2024-02-08T03:06:33.886Z,6.40
2024-02-08T03:07:34.855Z,8.20
2024-02-08T03:08:34.892Z,7.00
2024-02-08T03:09:33.861Z,7.30
2024-02-08T03:10:33.878Z,7.60
2024-02-08T03:11:33.863Z,6.20
2024-02-08T03:12:33.801Z,7.10
2024-02-08T03:13:33.826Z,5.10
2024-02-08T03:14:33.840Z,5.90
2024-02-08T03:15:33.794Z,5.00
2024-02-08T03:16:33.770Z,7.30
2024-02-08T03:17:34.206Z,6.90
2024-02-08T03:18:33.766Z,7.20
2024-02-08T03:19:33.837Z,9.20
2024-02-08T03:20:33.770Z,7.50
2024-02-08T03:21:33.703Z,8.60
2024-02-08T03:22:33.707Z,7.30
2024-02-08T03:23:33.733Z,6.70
2024-02-08T03:24:33.677Z,9.80
2024-02-08T03:25:33.689Z,5.90
2024-02-08T03:26:33.695Z,8.30
2024-02-08T03:27:34.250Z,7.70
2024-02-08T03:28:33.884Z,6.40
2024-02-08T03:29:33.614Z,7.70
2024-02-08T03:30:33.602Z,6.50
2024-02-08T03:31:33.657Z,6.80
2024-02-08T03:32:33.591Z,5.30
2024-02-08T03:33:33.611Z,6.80
2024-02-08T03:34:33.682Z,7.50
2024-02-08T03:35:33.616Z,6.50
2024-02-08T03:36:33.545Z,6.60
2024-02-08T03:37:33.598Z,6.40
2024-02-08T03:38:33.516Z,7.50
2024-02-08T03:39:33.518Z,8.60
2024-02-08T03:40:33.687Z,6.50
2024-02-08T03:41:33.489Z,8.90
2024-02-08T03:42:33.481Z,7.10
2024-02-08T03:43:33.555Z,7.80
2024-02-08T03:44:33.456Z,8.20
2024-02-08T03:45:33.444Z,9.30
2024-02-08T03:46:33.550Z,6.70
2024-02-08T03:47:34.358Z,5.30
2024-02-08T03:48:34.422Z,7.40
2024-02-08T03:49:33.521Z,5.10
2024-02-08T03:50:33.387Z,4.30
2024-02-08T03:51:33.371Z,3.50
2024-02-08T03:52:34.196Z,6.00
2024-02-08T03:53:33.373Z,4.90
2024-02-08T03:54:33.343Z,6.30
2024-02-08T03:55:33.550Z,4.80
2024-02-08T03:56:33.355Z,6.70
2024-02-08T03:57:33.311Z,5.70
2024-02-08T03:58:33.333Z,4.50
2024-02-08T03:59:33.318Z,5.90
2024-02-08T04:00:33.283Z,4.80
2024-02-08T04:01:33.363Z,6.80
2024-02-08T04:02:33.275Z,6.10
2024-02-08T04:03:33.323Z,5.60
2024-02-08T04:04:33.265Z,4.90
2024-02-08T04:05:33.275Z,6.50
2024-02-08T04:06:33.229Z,4.20
2024-02-08T04:07:34.016Z,5.80
2024-02-08T04:08:34.106Z,5.40
2024-02-08T04:09:33.981Z,6.90
2024-02-08T04:10:33.199Z,5.10
2024-02-08T04:11:33.185Z,5.40
2024-02-08T04:12:33.138Z,7.20
2024-02-08T04:13:33.152Z,4.90
2024-02-08T04:14:34.050Z,5.80
2024-02-08T04:15:33.117Z,5.40
2024-02-08T04:16:33.128Z,6.60
2024-02-08T04:17:33.183Z,4.20
2024-02-08T04:18:33.172Z,5.70
2024-02-08T04:19:33.086Z,5.80
2024-02-08T04:20:33.069Z,5.80
2024-02-08T04:21:33.138Z,4.90
2024-02-08T04:22:33.098Z,4.20
2024-02-08T04:23:34.764Z,5.10
2024-02-08T04:24:33.040Z,5.00
2024-02-08T04:25:34.043Z,6.10
2024-02-08T04:26:33.000Z,7.70
2024-02-08T04:27:33.037Z,5.50
2024-02-08T04:28:33.057Z,6.60
2024-02-08T04:29:33.855Z,7.20
2024-02-08T04:30:33.803Z,5.50
2024-02-08T04:31:33.024Z,7.30
2024-02-08T04:32:32.986Z,6.90
2024-02-08T04:33:33.120Z,5.90
2024-02-08T04:34:32.935Z,6.50
2024-02-08T04:35:32.891Z,6.00
2024-02-08T04:36:33.234Z,5.60
2024-02-08T04:37:32.935Z,7.10
2024-02-08T04:38:32.883Z,6.90
2024-02-08T04:39:33.139Z,6.00
2024-02-08T04:40:33.763Z,6.60
2024-02-08T04:41:33.324Z,5.20
2024-02-08T04:42:33.166Z,5.70
2024-02-08T04:43:32.846Z,5.80
2024-02-08T04:44:32.802Z,6.10
2024-02-08T04:45:33.509Z,4.60
2024-02-08T04:46:32.826Z,5.50
2024-02-08T04:47:32.812Z,7.80
2024-02-08T04:48:32.857Z,6.50
2024-02-08T04:49:32.862Z,6.10
2024-02-08T04:50:33.629Z,5.50
2024-02-08T04:51:32.721Z,6.60
2024-02-08T04:52:32.772Z,5.30
2024-02-08T04:53:32.703Z,6.30
2024-02-08T04:54:32.701Z,6.30
2024-02-08T04:55:32.705Z,7.20
2024-02-08T04:56:32.676Z,6.50
2024-02-08T04:57:32.799Z,7.40
2024-02-08T04:58:56.810Z,6.30
2024-02-08T04:59:33.707Z,4.80
2024-02-08T05:00:32.624Z,5.70
2024-02-08T05:01:32.610Z,6.10
2024-02-08T05:02:32.599Z,5.10
2024-02-08T05:03:32.612Z,7.20
2024-02-08T05:04:32.690Z,5.90
2024-02-08T05:05:33.553Z,5.80
2024-02-08T05:06:32.737Z,5.60
2024-02-08T05:07:32.636Z,6.30
2024-02-08T05:08:32.558Z,6.40
2024-02-08T05:09:32.556Z,7.30
2024-02-08T05:10:33.378Z,5.60
2024-02-08T05:11:32.607Z,6.50
2024-02-08T05:12:32.504Z,5.70
2024-02-08T05:13:32.906Z,4.50
2024-02-08T05:14:32.467Z,4.90
2024-02-08T05:15:32.500Z,5.50
2024-02-08T05:16:32.594Z,6.80
2024-02-08T05:17:32.450Z,5.60
2024-02-08T05:18:32.434Z,5.40
2024-02-08T05:19:32.565Z,5.60
2024-02-08T05:20:32.435Z,4.30
2024-02-08T05:21:33.282Z,5.90
2024-02-08T05:22:32.473Z,5.00
2024-02-08T05:23:32.393Z,4.90
2024-02-08T05:24:32.836Z,6.10
2024-02-08T05:25:32.397Z,5.50
2024-02-08T05:26:32.374Z,4.90
2024-02-08T05:27:32.395Z,5.80
2024-02-08T05:28:32.319Z,5.20
2024-02-08T05:29:33.241Z,6.80
2024-02-08T05:30:32.372Z,6.20
2024-02-08T05:31:32.373Z,5.60
2024-02-08T05:32:32.401Z,7.20
2024-02-08T05:33:32.326Z,6.60
2024-02-08T05:34:32.272Z,6.50
2024-02-08T05:35:32.408Z,6.30
2024-02-08T05:36:32.235Z,5.80
2024-02-08T05:37:32.313Z,7.60
2024-02-08T05:38:32.474Z,7.10
2024-02-08T05:39:32.189Z,6.80
2024-02-08T05:40:32.588Z,7.10
2024-02-08T05:41:32.168Z,6.90
2024-02-08T05:42:32.184Z,6.00
2024-02-08T05:43:32.893Z,6.40
2024-02-08T05:44:34.072Z,5.70
2024-02-08T05:45:32.310Z,5.90
2024-02-08T05:46:32.218Z,5.20
2024-02-08T05:47:32.138Z,6.60
2024-02-08T05:48:32.131Z,7.10
2024-02-08T05:49:32.191Z,8.70
2024-02-08T05:50:33.002Z,5.20
2024-02-08T05:51:32.903Z,6.50
2024-02-08T05:52:32.228Z,6.70
2024-02-08T05:53:32.070Z,7.60
2024-02-08T05:54:33.273Z,7.80
2024-02-08T05:55:32.091Z,6.90
2024-02-08T05:56:32.284Z,7.70
2024-02-08T05:57:32.006Z,6.10
2024-02-08T05:58:32.059Z,5.50
2024-02-08T05:59:32.018Z,6.10
2024-02-08T06:00:32.137Z,5.10
2024-02-08T06:01:32.213Z,4.90
2024-02-08T06:02:31.947Z,7.40
2024-02-08T06:03:31.936Z,5.00
2024-02-08T06:04:32.032Z,5.80
2024-02-08T06:05:32.147Z,6.70
2024-02-08T06:06:31.914Z,7.60
2024-02-08T06:07:32.740Z,8.00
2024-02-08T06:08:31.978Z,6.60
2024-02-08T06:09:31.879Z,6.30
2024-02-08T06:10:31.961Z,8.10
2024-02-08T06:11:32.792Z,7.90
2024-02-08T06:12:32.086Z,6.40
2024-02-08T06:13:31.894Z,9.00
2024-02-08T06:14:31.835Z,7.70
2024-02-08T06:15:31.847Z,8.40
2024-02-08T06:16:32.594Z,6.50
2024-02-08T06:17:31.900Z,6.90
2024-02-08T06:18:32.822Z,7.20
2024-02-08T06:19:31.958Z,7.50
2024-02-08T06:20:31.757Z,9.60
2024-02-08T06:21:31.745Z,7.60
2024-02-08T06:22:31.805Z,5.90
2024-02-08T06:23:31.729Z,7.90
2024-02-08T06:24:31.726Z,7.60
2024-02-08T06:25:31.787Z,8.20
2024-02-08T06:26:31.771Z,8.20
2024-02-08T06:27:31.735Z,7.90
2024-02-08T06:28:31.706Z,7.50
2024-02-08T06:29:31.703Z,8.50
2024-02-08T06:30:31.653Z,8.60
2024-02-08T06:31:36.508Z,8.00
2024-02-08T06:32:32.703Z,8.70
2024-02-08T06:33:31.778Z,8.60
2024-02-08T06:34:31.675Z,9.20
2024-02-08T06:35:31.618Z,9.30
2024-02-08T06:36:31.623Z,9.60
2024-02-08T06:37:31.813Z,10.70
2024-02-08T06:38:31.745Z,9.80
2024-02-08T06:39:32.237Z,8.60
2024-02-08T06:40:31.732Z,9.30
2024-02-08T06:41:31.571Z,11.10
2024-02-08T06:42:31.514Z,10.40
2024-02-08T06:43:32.307Z,11.00
2024-02-08T06:44:31.737Z,11.10
2024-02-08T06:45:31.551Z,11.20
2024-02-08T06:46:31.590Z,9.30
2024-02-08T06:47:31.622Z,11.80
2024-02-08T06:48:31.578Z,10.70
2024-02-08T06:49:31.684Z,10.90
2024-02-08T06:50:31.426Z,11.90
2024-02-08T06:51:32.285Z,10.50
2024-02-08T06:52:31.496Z,9.00
2024-02-08T06:53:34.495Z,10.30
2024-02-08T06:54:31.395Z,10.50
2024-02-08T06:55:31.449Z,10.20
2024-02-08T06:56:31.368Z,10.00
2024-02-08T06:57:31.369Z,7.90
2024-02-08T06:58:31.404Z,8.40
2024-02-08T06:59:31.333Z,9.40
2024-02-08T07:00:31.537Z,9.70
2024-02-08T07:01:31.398Z,9.90
2024-02-08T07:02:31.299Z,11.40
2024-02-08T07:03:31.386Z,11.60
2024-02-08T07:04:31.392Z,10.10
2024-02-08T07:05:32.042Z,11.20
2024-02-08T07:06:31.319Z,11.00
2024-02-08T07:07:31.325Z,11.20
2024-02-08T07:08:31.251Z,12.80
2024-02-08T07:09:31.231Z,12.10
2024-02-08T07:10:31.285Z,10.40
2024-02-08T07:11:32.122Z,12.20
2024-02-08T07:12:32.030Z,11.90
2024-02-08T07:13:31.338Z,11.10
2024-02-08T07:14:31.374Z,11.70
2024-02-08T07:15:31.155Z,12.10
2024-02-08T07:16:31.262Z,11.90
2024-02-08T07:17:31.205Z,13.00
2024-02-08T07:18:31.245Z,11.70
2024-02-08T07:19:31.241Z,13.10
2024-02-08T07:20:31.333Z,13.70
2024-02-08T07:21:31.103Z,11.50
2024-02-08T07:22:31.230Z,12.00
2024-02-08T07:23:33.060Z,12.90
2024-02-08T07:24:31.075Z,11.60
2024-02-08T07:25:31.066Z,11.20
2024-02-08T07:26:31.030Z,13.50
2024-02-08T07:27:31.087Z,11.90
2024-02-08T07:28:31.110Z,12.30
2024-02-08T07:29:31.041Z,13.30
2024-02-08T07:30:31.057Z,13.50
2024-02-08T07:31:31.065Z,13.30
2024-02-08T07:32:31.017Z,11.00
2024-02-08T07:33:31.829Z,11.30
2024-02-08T07:34:31.900Z,10.60
2024-02-08T07:35:31.644Z,12.50
2024-02-08T07:36:30.969Z,10.40
2024-02-08T07:37:31.103Z,11.00
2024-02-08T07:38:31.831Z,12.40
2024-02-08T07:39:30.928Z,11.60
2024-02-08T07:40:31.409Z,13.50
2024-02-08T07:41:31.387Z,11.40
2024-02-08T07:42:31.243Z,10.60
2024-02-08T07:43:30.872Z,7.90
2024-02-08T07:44:31.631Z,8.30
2024-02-08T07:45:30.837Z,8.80
2024-02-08T07:46:31.248Z,9.90
2024-02-08T07:47:30.866Z,8.60
2024-02-08T07:48:30.850Z,8.40
2024-02-08T07:49:30.875Z,8.30
2024-02-08T07:50:30.769Z,8.30
2024-02-08T07:51:30.804Z,9.70
2024-02-08T07:52:30.835Z,7.80
2024-02-08T07:53:30.809Z,11.50
2024-02-08T07:54:30.799Z,8.90
2024-02-08T07:55:30.782Z,9.20
2024-02-08T07:56:30.918Z,8.30
2024-02-08T07:57:30.695Z,7.40
2024-02-08T07:58:30.748Z,9.10
2024-02-08T07:59:30.685Z,10.20
2024-02-08T08:00:31.167Z,10.90
2024-02-08T08:01:31.126Z,8.10
2024-02-08T08:02:31.550Z,7.30
2024-02-08T08:03:30.642Z,7.80
2024-02-08T08:04:30.666Z,8.30
2024-02-08T08:05:30.720Z,8.50
2024-02-08T08:06:30.620Z,9.10
2024-02-08T08:07:30.677Z,7.20
2024-02-08T08:08:30.587Z,6.90
2024-02-08T08:09:30.576Z,6.10
2024-02-08T08:10:30.670Z,6.80
2024-02-08T08:11:31.496Z,6.60
2024-02-08T08:12:30.560Z,7.20
2024-02-08T08:13:31.322Z,7.90
2024-02-08T08:14:31.272Z,8.80
2024-02-08T08:15:30.556Z,7.40
2024-02-08T08:16:31.098Z,6.90
2024-02-08T08:17:30.554Z,7.10
2024-02-08T08:18:30.493Z,7.60
2024-02-08T08:19:30.712Z,7.10
2024-02-08T08:20:30.475Z,7.30
2024-02-08T08:21:30.449Z,9.70
2024-02-08T08:22:30.651Z,10.60
2024-02-08T08:23:30.415Z,8.10
2024-02-08T08:24:30.403Z,8.90
2024-02-08T08:25:31.119Z,8.30
2024-02-08T08:26:30.447Z,9.00
2024-02-08T08:27:30.363Z,8.90
2024-02-08T08:28:30.446Z,8.50
2024-02-08T08:29:30.345Z,7.60
2024-02-08T08:30:32.850Z,7.60
2024-02-08T08:31:30.437Z,6.80
2024-02-08T08:32:30.373Z,6.20
2024-02-08T08:33:30.564Z,6.00
2024-02-08T08:34:30.552Z,7.10
2024-02-08T08:35:31.328Z,5.30
2024-02-08T08:36:30.410Z,5.90
2024-02-08T08:37:30.455Z,5.50
2024-02-08T08:38:30.446Z,6.30
2024-02-08T08:39:31.103Z,5.60
2024-02-08T08:40:30.341Z,5.80
2024-02-08T08:41:30.347Z,5.40
2024-02-08T08:42:30.267Z,4.80
2024-02-08T08:43:30.234Z,4.60
2024-02-08T08:44:30.499Z,6.90
2024-02-08T08:45:30.193Z,5.00
2024-02-08T08:46:30.232Z,4.90
2024-02-08T08:47:30.270Z,5.00
2024-02-08T08:48:30.222Z,5.50
2024-02-08T08:49:30.236Z,5.50
2024-02-08T08:50:30.271Z,4.10
2024-02-08T08:51:30.115Z,5.60
2024-02-08T08:52:30.167Z,4.50
2024-02-08T08:53:30.127Z,4.80
2024-02-08T08:54:31.166Z,5.80
2024-02-08T08:55:30.861Z,4.30
2024-02-08T08:56:30.134Z,5.00
2024-02-08T08:57:30.048Z,5.00
2024-02-08T08:58:30.142Z,4.60
2024-02-08T08:59:30.016Z,4.70
2024-02-08T09:00:30.033Z,4.60
2024-02-08T09:01:30.050Z,3.90
2024-02-08T09:02:29.979Z,3.70
2024-02-08T09:03:30.352Z,3.30
2024-02-08T09:04:30.040Z,3.90
2024-02-08T09:05:30.091Z,3.40
2024-02-08T09:06:30.035Z,3.20
2024-02-08T09:07:30.023Z,3.30
2024-02-08T09:08:30.085Z,3.40
2024-02-08T09:09:30.044Z,4.80
2024-02-08T09:10:29.984Z,2.90
2024-02-08T09:11:29.871Z,3.60
2024-02-08T09:12:30.275Z,4.80
2024-02-08T09:13:29.941Z,2.90
2024-02-08T09:14:29.899Z,3.20
2024-02-08T09:15:30.710Z,5.00
2024-02-08T09:16:30.125Z,3.50
2024-02-08T09:17:29.961Z,2.50
2024-02-08T09:18:29.934Z,2.90
2024-02-08T09:19:29.991Z,2.50
2024-02-08T09:20:30.431Z,2.90
2024-02-08T09:21:29.769Z,2.70
2024-02-08T09:22:30.864Z,2.80
2024-02-08T09:23:29.735Z,2.40
2024-02-08T09:24:31.254Z,2.00
2024-02-08T09:25:36.033Z,2.70
2024-02-08T09:26:30.712Z,3.00
2024-02-08T09:27:29.699Z,3.00
2024-02-08T09:28:30.124Z,2.50
2024-02-08T09:29:33.079Z,2.70
2024-02-08T09:30:29.673Z,2.90
2024-02-08T09:31:29.728Z,1.80
2024-02-08T09:32:29.654Z,1.90
2024-02-08T09:33:29.647Z,2.60
2024-02-08T09:34:29.687Z,2.20
2024-02-08T09:35:30.409Z,2.30
2024-02-08T09:36:30.492Z,1.80
2024-02-08T09:37:29.610Z,1.70
2024-02-08T09:38:29.634Z,2.40
2024-02-08T09:39:29.932Z,1.80
2024-02-08T09:40:29.749Z,2.30
2024-02-08T09:41:29.531Z,1.50
2024-02-08T09:42:30.018Z,2.50
2024-02-08T09:43:29.547Z,3.20
2024-02-08T09:44:29.559Z,2.40
2024-02-08T09:45:29.490Z,1.70
2024-02-08T09:46:29.551Z,1.60
2024-02-08T09:47:29.747Z,2.60
2024-02-08T09:48:29.531Z,2.20
2024-02-08T09:49:29.734Z,3.40
2024-02-08T09:50:30.181Z,2.80
2024-02-08T09:51:29.496Z,2.00
2024-02-08T09:52:29.613Z,1.80
2024-02-08T09:53:29.840Z,1.70
2024-02-08T09:54:29.696Z,2.10
2024-02-08T09:55:29.972Z,2.10
2024-02-08T09:56:30.453Z,2.50
2024-02-08T09:57:30.272Z,1.80
2024-02-08T09:58:30.597Z,2.60
2024-02-08T09:59:29.378Z,3.70
2024-02-08T10:00:29.340Z,2.20
2024-02-08T10:01:29.459Z,2.80
2024-02-08T10:02:29.335Z,2.00
2024-02-08T10:03:29.313Z,2.90
2024-02-08T10:04:29.370Z,2.30
2024-02-08T10:05:29.295Z,2.70
2024-02-08T10:06:29.307Z,2.50
2024-02-08T10:07:29.658Z,4.20
2024-02-08T10:08:29.231Z,3.80
2024-02-08T10:09:29.243Z,2.00
2024-02-08T10:10:29.347Z,3.80
2024-02-08T10:11:29.206Z,2.60
2024-02-08T10:12:29.185Z,3.00
2024-02-08T10:13:29.393Z,2.70
2024-02-08T10:14:29.156Z,2.80
2024-02-08T10:15:29.159Z,3.30
2024-02-08T10:16:29.215Z,5.00
2024-02-08T10:17:29.254Z,3.20
2024-02-08T10:18:29.187Z,3.00
2024-02-08T10:19:29.462Z,2.70
2024-02-08T10:20:29.090Z,3.60
2024-02-08T10:21:29.091Z,3.10
2024-02-08T10:22:29.232Z,3.70
2024-02-08T10:23:29.322Z,3.90
2024-02-08T10:24:29.055Z,3.10
2024-02-08T10:25:29.128Z,4.10
2024-02-08T10:26:29.101Z,3.80
2024-02-08T10:27:29.047Z,3.60
2024-02-08T10:28:29.139Z,4.00
2024-02-08T10:29:29.042Z,4.30
2024-02-08T10:30:28.985Z,3.90
2024-02-08T10:31:28.999Z,4.40
2024-02-08T10:32:29.376Z,3.10
2024-02-08T10:33:29.016Z,2.40
2024-02-08T10:34:29.087Z,3.20
2024-02-08T10:35:28.930Z,2.90
2024-02-08T10:36:29.207Z,2.10
2024-02-08T10:37:29.584Z,3.80
2024-02-08T10:38:28.920Z,3.50
2024-02-08T10:39:28.895Z,2.40
2024-02-08T10:40:28.977Z,2.80
2024-02-08T10:41:28.896Z,3.40
2024-02-08T10:42:28.857Z,2.90
2024-02-08T10:43:28.891Z,2.80
2024-02-08T10:44:28.880Z,3.90
2024-02-08T10:45:28.818Z,3.10
2024-02-08T10:46:28.845Z,2.70
2024-02-08T10:47:34.913Z,3.20
2024-02-08T10:48:30.482Z,2.60
2024-02-08T10:49:28.880Z,2.50
2024-02-08T10:50:29.036Z,2.20
2024-02-08T10:51:28.745Z,2.30
2024-02-08T10:52:28.878Z,2.40
2024-02-08T10:53:28.752Z,2.00
2024-02-08T10:54:28.848Z,1.30
2024-02-08T10:55:28.773Z,1.40
2024-02-08T10:56:28.727Z,2.40
2024-02-08T10:57:29.405Z,1.80
2024-02-08T10:58:29.069Z,3.50
2024-02-08T10:59:28.664Z,3.90
2024-02-08T11:00:28.700Z,2.60
2024-02-08T11:01:28.691Z,2.30
2024-02-08T11:02:29.403Z,1.70
2024-02-08T11:03:28.622Z,2.40
2024-02-08T11:04:28.752Z,1.40
2024-02-08T11:05:29.010Z,2.30
2024-02-08T11:06:30.028Z,1.80
2024-02-08T11:07:28.647Z,2.10
2024-02-08T11:08:28.568Z,1.30
2024-02-08T11:09:28.930Z,1.00
2024-02-08T11:10:28.620Z,1.00
2024-02-08T11:11:28.530Z,1.20
2024-02-08T11:12:28.548Z,1.60
2024-02-08T11:13:28.663Z,1.80
2024-02-08T11:14:28.492Z,0.90
2024-02-08T11:15:28.481Z,0.90
2024-02-08T11:16:28.607Z,1.00
2024-02-08T11:17:28.521Z,1.30
2024-02-08T11:18:29.502Z,0.90
2024-02-08T11:19:28.697Z,0.90
2024-02-08T11:20:28.763Z,1.70
2024-02-08T11:21:28.422Z,1.50
2024-02-08T11:22:28.570Z,1.40
2024-02-08T11:23:28.418Z,1.10
2024-02-08T11:24:28.407Z,1.20
2024-02-08T11:25:28.452Z,1.90
2024-02-08T11:26:28.700Z,0.80
2024-02-08T11:27:28.341Z,2.00
2024-02-08T11:28:28.395Z,7.10
2024-02-08T11:29:28.594Z,0.90
2024-02-08T11:30:28.318Z,0.90
2024-02-08T11:31:28.342Z,1.40
2024-02-08T11:32:28.388Z,1.50
2024-02-08T11:33:28.283Z,1.70
2024-02-08T11:34:28.336Z,0.70
2024-02-08T11:35:28.367Z,0.60
2024-02-08T11:36:28.267Z,0.90
2024-02-08T11:37:28.260Z,0.90
2024-02-08T11:38:29.029Z,1.00
2024-02-08T11:39:29.196Z,0.60
2024-02-08T11:40:28.249Z,2.40
2024-02-08T11:41:28.213Z,0.90
2024-02-08T11:42:28.172Z,1.20
2024-02-08T11:43:28.217Z,1.30
2024-02-08T11:44:28.179Z,1.30
2024-02-08T11:45:28.153Z,0.80
2024-02-08T11:46:28.159Z,0.40
2024-02-08T11:47:28.246Z,0.60
2024-02-08T11:48:28.300Z,0.60
2024-02-08T11:49:28.192Z,0.60
2024-02-08T11:50:28.390Z,0.60
2024-02-08T11:51:28.248Z,0.80
2024-02-08T11:52:28.251Z,1.30
2024-02-08T11:53:28.096Z,0.90
2024-02-08T11:54:28.091Z,0.90
2024-02-08T11:55:28.409Z,0.60
2024-02-08T11:56:28.056Z,1.10
2024-02-08T11:57:28.089Z,1.80
2024-02-08T11:58:28.164Z,1.30
2024-02-08T11:59:28.083Z,0.80
2024-02-08T12:00:28.164Z,0.70
2024-02-08T12:01:28.038Z,1.10
2024-02-08T12:02:28.833Z,1.60
2024-02-08T12:03:28.018Z,0.60
2024-02-08T12:04:28.063Z,1.10
2024-02-08T12:05:28.600Z,1.00
2024-02-08T12:06:28.006Z,0.90
2024-02-08T12:07:28.024Z,3.00
2024-02-08T12:08:36.878Z,0.80
2024-02-08T12:09:29.165Z,1.70
2024-02-08T12:10:27.889Z,1.40
2024-02-08T12:11:27.897Z,0.90
2024-02-08T12:12:28.609Z,3.00
2024-02-08T12:13:28.009Z,2.60
2024-02-08T12:14:28.261Z,1.50
2024-02-08T12:15:28.025Z,1.00
2024-02-08T12:16:27.854Z,1.70
2024-02-08T12:17:27.821Z,1.00
2024-02-08T12:18:29.477Z,0.90
2024-02-08T12:19:27.894Z,2.10
2024-02-08T12:20:27.829Z,0.80
2024-02-08T12:21:28.555Z,0.70
2024-02-08T12:22:27.805Z,1.50
2024-02-08T12:23:27.735Z,1.60
2024-02-08T12:24:28.248Z,1.10
2024-02-08T12:25:27.765Z,0.70
2024-02-08T12:26:27.698Z,0.50
2024-02-08T12:27:27.679Z,1.30
2024-02-08T12:28:27.710Z,0.60
2024-02-08T12:29:28.459Z,0.70
2024-02-08T12:30:28.876Z,1.10
2024-02-08T12:31:28.713Z,1.10
2024-02-08T12:32:28.922Z,1.20
2024-02-08T12:33:27.794Z,1.90
2024-02-08T12:34:27.718Z,1.20
2024-02-08T12:35:27.783Z,1.90
2024-02-08T12:36:27.753Z,1.20
2024-02-08T12:37:27.608Z,1.00
2024-02-08T12:38:27.607Z,1.00
2024-02-08T12:39:28.322Z,1.10
2024-02-08T12:40:27.590Z,1.40
2024-02-08T12:41:27.855Z,1.40
2024-02-08T12:42:27.541Z,1.20
2024-02-08T12:43:27.548Z,2.00
2024-02-08T12:44:27.515Z,1.40
2024-02-08T12:45:27.508Z,1.90
2024-02-08T12:46:28.465Z,1.40
2024-02-08T12:47:27.549Z,1.40
2024-02-08T12:48:27.503Z,2.30
2024-02-08T12:49:27.559Z,1.90
2024-02-08T12:50:29.726Z,3.40
2024-02-08T12:51:27.492Z,5.60
2024-02-08T12:52:28.379Z,3.70
2024-02-08T12:53:27.386Z,1.80
2024-02-08T12:54:27.414Z,1.40
2024-02-08T12:55:27.421Z,2.20
2024-02-08T12:56:27.362Z,2.00
2024-02-08T12:57:27.386Z,1.30
2024-02-08T12:58:27.403Z,1.80
2024-02-08T12:59:28.201Z,2.00
2024-02-08T13:00:27.386Z,2.50
2024-02-08T13:01:27.471Z,1.60
2024-02-08T13:02:27.316Z,1.50
2024-02-08T13:03:27.329Z,1.80
2024-02-08T13:04:27.298Z,1.80
2024-02-08T13:05:27.826Z,1.90
2024-02-08T13:06:27.784Z,2.30
2024-02-08T13:07:27.404Z,2.00
2024-02-08T13:08:27.266Z,3.30
2024-02-08T13:09:28.047Z,2.70
2024-02-08T13:10:27.263Z,2.60
2024-02-08T13:11:27.199Z,3.10
2024-02-08T13:12:27.553Z,2.60
2024-02-08T13:13:27.325Z,2.20
2024-02-08T13:14:29.855Z,3.30
2024-02-08T13:15:33.078Z,3.20
2024-02-08T13:16:29.385Z,3.80